sensor_id;sensor_type;location;lat;lon;timestamp;P1;durP1;ratioP1;P2;durP2;ratioP2
19038;SDS011;9652;49.014;12.052;2023-03-20T00:00:46;6.23;;;3.97;;
19038;SDS011;9652;49.014;12.052;2023-03-20T00:03:17;5.13;;;4.63;;
19038;SDS011;9652;49.014;12.052;2023-03-20T00:05:44;4.13;;;3.73;;
19038;SDS011;9652;49.014;12.052;2023-03-20T00:08:11;4.33;;;3.93;;
19038;SDS011;9652;49.014;12.052;2023-03-20T00:10:41;5.63;;;4.40;;
19038;SDS011;9652;49.014;12.052;2023-03-20T00:13:12;4.43;;;3.87;;
19038;SDS011;9652;49.014;12.052;2023-03-20T00:15:45;4.93;;;4.17;;
19038;SDS011;9652;49.014;12.052;2023-03-20T00:18:13;5.70;;;4.17;;
19038;SDS011;9652;49.014;12.052;2023-03-20T00:20:44;4.13;;;3.73;;
19038;SDS011;9652;49.014;12.052;2023-03-20T00:23:12;4.30;;;3.90;;
19038;SDS011;9652;49.014;12.052;2023-03-20T00:25:41;4.13;;;3.73;;
19038;SDS011;9652;49.014;12.052;2023-03-20T00:28:25;3.90;;;3.60;;
19038;SDS011;9652;49.014;12.052;2023-03-20T00:31:08;4.87;;;4.37;;
19038;SDS011;9652;49.014;12.052;2023-03-20T00:33:50;4.07;;;3.77;;
19038;SDS011;9652;49.014;12.052;2023-03-20T00:36:19;4.40;;;4.00;;
19038;SDS011;9652;49.014;12.052;2023-03-20T00:38:46;4.07;;;3.77;;
19038;SDS011;9652;49.014;12.052;2023-03-20T00:41:19;4.63;;;4.00;;
19038;SDS011;9652;49.014;12.052;2023-03-20T00:43:51;6.63;;;3.70;;
19038;SDS011;9652;49.014;12.052;2023-03-20T00:46:21;6.03;;;3.93;;
19038;SDS011;9652;49.014;12.052;2023-03-20T00:48:50;4.57;;;3.73;;
19038;SDS011;9652;49.014;12.052;2023-03-20T00:51:18;4.30;;;3.73;;
19038;SDS011;9652;49.014;12.052;2023-03-20T00:53:45;4.07;;;3.67;;
19038;SDS011;9652;49.014;12.052;2023-03-20T00:56:22;4.60;;;4.20;;
19038;SDS011;9652;49.014;12.052;2023-03-20T00:58:57;4.80;;;4.40;;
19038;SDS011;9652;49.014;12.052;2023-03-20T01:01:26;4.23;;;3.83;;
19038;SDS011;9652;49.014;12.052;2023-03-20T01:03:55;4.73;;;4.33;;
19038;SDS011;9652;49.014;12.052;2023-03-20T01:06:22;4.23;;;3.90;;
19038;SDS011;9652;49.014;12.052;2023-03-20T01:08:49;4.13;;;3.70;;
19038;SDS011;9652;49.014;12.052;2023-03-20T01:11:18;5.10;;;3.97;;
19038;SDS011;9652;49.014;12.052;2023-03-20T01:13:49;4.47;;;4.07;;
19038;SDS011;9652;49.014;12.052;2023-03-20T01:16:18;7.80;;;4.60;;
19038;SDS011;9652;49.014;12.052;2023-03-20T01:18:49;4.20;;;3.80;;
19038;SDS011;9652;49.014;12.052;2023-03-20T01:21:17;4.07;;;3.77;;
19038;SDS011;9652;49.014;12.052;2023-03-20T01:23:46;4.53;;;4.13;;
19038;SDS011;9652;49.014;12.052;2023-03-20T01:26:18;4.23;;;3.90;;
19038;SDS011;9652;49.014;12.052;2023-03-20T01:28:52;5.00;;;3.80;;
19038;SDS011;9652;49.014;12.052;2023-03-20T01:31:19;4.23;;;3.83;;
19038;SDS011;9652;49.014;12.052;2023-03-20T01:33:46;4.73;;;4.03;;
19038;SDS011;9652;49.014;12.052;2023-03-20T01:36:14;4.50;;;4.10;;
19038;SDS011;9652;49.014;12.052;2023-03-20T01:38:48;4.10;;;3.80;;
19038;SDS011;9652;49.014;12.052;2023-03-20T01:41:23;4.90;;;4.30;;
19038;SDS011;9652;49.014;12.052;2023-03-20T01:43:52;4.63;;;4.23;;
19038;SDS011;9652;49.014;12.052;2023-03-20T01:46:21;5.30;;;4.17;;
19038;SDS011;9652;49.014;12.052;2023-03-20T01:48:59;5.37;;;3.57;;
19038;SDS011;9652;49.014;12.052;2023-03-20T01:51:35;4.10;;;3.80;;
19038;SDS011;9652;49.014;12.052;2023-03-20T01:54:10;4.07;;;3.77;;
19038;SDS011;9652;49.014;12.052;2023-03-20T01:56:58;4.00;;;3.70;;
19038;SDS011;9652;49.014;12.052;2023-03-20T01:59:32;3.90;;;3.50;;
19038;SDS011;9652;49.014;12.052;2023-03-20T02:02:04;4.77;;;4.33;;
19038;SDS011;9652;49.014;12.052;2023-03-20T02:04:34;5.30;;;4.60;;
19038;SDS011;9652;49.014;12.052;2023-03-20T02:07:10;4.67;;;4.00;;
19038;SDS011;9652;49.014;12.052;2023-03-20T02:09:50;5.03;;;4.13;;
19038;SDS011;9652;49.014;12.052;2023-03-20T02:12:25;5.03;;;4.43;;
19038;SDS011;9652;49.014;12.052;2023-03-20T02:14:53;4.40;;;4.00;;
19038;SDS011;9652;49.014;12.052;2023-03-20T02:17:38;4.17;;;3.87;;
19038;SDS011;9652;49.014;12.052;2023-03-20T02:20:11;4.30;;;3.90;;
19038;SDS011;9652;49.014;12.052;2023-03-20T02:26:39;5.17;;;4.63;;
19038;SDS011;9652;49.014;12.052;2023-03-20T02:39:34;3.90;;;3.60;;
19038;SDS011;9652;49.014;12.052;2023-03-20T02:42:19;3.47;;;3.17;;
19038;SDS011;9652;49.014;12.052;2023-03-20T02:44:59;4.23;;;3.93;;
19038;SDS011;9652;49.014;12.052;2023-03-20T02:47:39;3.90;;;3.50;;
19038;SDS011;9652;49.014;12.052;2023-03-20T02:50:18;6.43;;;3.93;;
19038;SDS011;9652;49.014;12.052;2023-03-20T02:53:04;3.60;;;3.30;;
19038;SDS011;9652;49.014;12.052;2023-03-20T02:55:46;4.10;;;3.77;;
19038;SDS011;9652;49.014;12.052;2023-03-20T02:58:22;3.80;;;3.50;;
19038;SDS011;9652;49.014;12.052;2023-03-20T03:00:57;4.53;;;4.13;;
19038;SDS011;9652;49.014;12.052;2023-03-20T03:03:31;3.40;;;3.10;;
19038;SDS011;9652;49.014;12.052;2023-03-20T03:06:05;7.50;;;4.00;;
19038;SDS011;9652;49.014;12.052;2023-03-20T03:08:42;4.80;;;4.40;;
19038;SDS011;9652;49.014;12.052;2023-03-20T03:11:18;4.20;;;3.70;;
19038;SDS011;9652;49.014;12.052;2023-03-20T03:13:47;4.23;;;3.93;;
19038;SDS011;9652;49.014;12.052;2023-03-20T03:16:20;4.20;;;3.80;;
19038;SDS011;9652;49.014;12.052;2023-03-20T03:18:54;5.07;;;4.63;;
19038;SDS011;9652;49.014;12.052;2023-03-20T03:21:33;3.93;;;3.53;;
19038;SDS011;9652;49.014;12.052;2023-03-20T03:24:03;4.87;;;4.47;;
19038;SDS011;9652;49.014;12.052;2023-03-20T03:26:34;4.30;;;3.93;;
19038;SDS011;9652;49.014;12.052;2023-03-20T03:29:08;4.50;;;4.00;;
19038;SDS011;9652;49.014;12.052;2023-03-20T03:31:41;4.17;;;3.87;;
19038;SDS011;9652;49.014;12.052;2023-03-20T03:34:11;6.20;;;3.70;;
19038;SDS011;9652;49.014;12.052;2023-03-20T03:36:44;4.13;;;3.83;;
19038;SDS011;9652;49.014;12.052;2023-03-20T03:39:22;4.20;;;3.70;;
19038;SDS011;9652;49.014;12.052;2023-03-20T03:42:03;4.10;;;3.70;;
19038;SDS011;9652;49.014;12.052;2023-03-20T03:44:40;4.57;;;4.17;;
19038;SDS011;9652;49.014;12.052;2023-03-20T03:47:17;4.17;;;3.77;;
19038;SDS011;9652;49.014;12.052;2023-03-20T03:49:50;4.50;;;4.10;;
19038;SDS011;9652;49.014;12.052;2023-03-20T03:52:28;3.90;;;3.60;;
19038;SDS011;9652;49.014;12.052;2023-03-20T03:55:01;4.10;;;3.80;;
19038;SDS011;9652;49.014;12.052;2023-03-20T03:57:36;5.07;;;3.43;;
19038;SDS011;9652;49.014;12.052;2023-03-20T04:00:13;3.70;;;3.40;;
19038;SDS011;9652;49.014;12.052;2023-03-20T04:02:49;3.90;;;3.57;;
19038;SDS011;9652;49.014;12.052;2023-03-20T04:05:21;3.80;;;3.50;;
19038;SDS011;9652;49.014;12.052;2023-03-20T04:07:57;3.53;;;3.30;;
19038;SDS011;9652;49.014;12.052;2023-03-20T04:10:26;3.80;;;3.50;;
19038;SDS011;9652;49.014;12.052;2023-03-20T04:12:54;4.20;;;3.80;;
19038;SDS011;9652;49.014;12.052;2023-03-20T04:15:21;4.03;;;3.70;;
19038;SDS011;9652;49.014;12.052;2023-03-20T04:17:51;4.50;;;4.10;;
19038;SDS011;9652;49.014;12.052;2023-03-20T04:20:19;4.60;;;4.20;;
19038;SDS011;9652;49.014;12.052;2023-03-20T04:22:47;4.83;;;4.33;;
19038;SDS011;9652;49.014;12.052;2023-03-20T04:25:16;4.60;;;4.20;;
19038;SDS011;9652;49.014;12.052;2023-03-20T04:27:47;5.63;;;3.73;;
19038;SDS011;9652;49.014;12.052;2023-03-20T04:30:33;3.87;;;3.57;;
19038;SDS011;9652;49.014;12.052;2023-03-20T04:33:16;5.00;;;3.70;;
19038;SDS011;9652;49.014;12.052;2023-03-20T04:35:52;3.50;;;3.20;;
19038;SDS011;9652;49.014;12.052;2023-03-20T04:38:20;3.77;;;3.47;;
19038;SDS011;9652;49.014;12.052;2023-03-20T04:40:50;4.77;;;4.37;;
19038;SDS011;9652;49.014;12.052;2023-03-20T04:43:18;6.37;;;3.73;;
19038;SDS011;9652;49.014;12.052;2023-03-20T04:45:46;4.20;;;3.90;;
19038;SDS011;9652;49.014;12.052;2023-03-20T04:48:13;4.00;;;3.13;;
19038;SDS011;9652;49.014;12.052;2023-03-20T04:50:41;3.80;;;3.50;;
19038;SDS011;9652;49.014;12.052;2023-03-20T04:53:11;3.77;;;3.47;;
19038;SDS011;9652;49.014;12.052;2023-03-20T04:55:38;3.50;;;3.17;;
19038;SDS011;9652;49.014;12.052;2023-03-20T04:58:05;3.70;;;3.40;;
19038;SDS011;9652;49.014;12.052;2023-03-20T05:00:32;4.00;;;3.70;;
19038;SDS011;9652;49.014;12.052;2023-03-20T05:03:02;3.97;;;3.37;;
19038;SDS011;9652;49.014;12.052;2023-03-20T05:05:29;4.00;;;3.50;;
19038;SDS011;9652;49.014;12.052;2023-03-20T05:07:57;3.97;;;3.57;;
19038;SDS011;9652;49.014;12.052;2023-03-20T05:10:31;4.93;;;3.90;;
19038;SDS011;9652;49.014;12.052;2023-03-20T05:13:05;4.77;;;3.90;;
19038;SDS011;9652;49.014;12.052;2023-03-20T05:16:10;4.30;;;3.90;;
19038;SDS011;9652;49.014;12.052;2023-03-20T05:19:00;5.27;;;4.03;;
19038;SDS011;9652;49.014;12.052;2023-03-20T05:21:45;4.50;;;4.10;;
19038;SDS011;9652;49.014;12.052;2023-03-20T05:24:25;3.33;;;3.03;;
19038;SDS011;9652;49.014;12.052;2023-03-20T05:27:22;4.43;;;4.07;;
19038;SDS011;9652;49.014;12.052;2023-03-20T05:30:22;5.77;;;4.33;;
19038;SDS011;9652;49.014;12.052;2023-03-20T05:32:55;4.37;;;3.73;;
19038;SDS011;9652;49.014;12.052;2023-03-20T05:35:26;4.83;;;4.27;;
19038;SDS011;9652;49.014;12.052;2023-03-20T05:38:12;3.93;;;3.53;;
19038;SDS011;9652;49.014;12.052;2023-03-20T05:41:02;4.27;;;3.57;;
19038;SDS011;9652;49.014;12.052;2023-03-20T05:43:40;3.80;;;3.50;;
19038;SDS011;9652;49.014;12.052;2023-03-20T05:46:25;4.27;;;3.87;;
19038;SDS011;9652;49.014;12.052;2023-03-20T05:49:11;4.43;;;4.00;;
19038;SDS011;9652;49.014;12.052;2023-03-20T05:52:01;8.90;;;4.37;;
19038;SDS011;9652;49.014;12.052;2023-03-20T05:54:36;3.93;;;3.53;;
19038;SDS011;9652;49.014;12.052;2023-03-20T05:57:26;5.43;;;3.83;;
19038;SDS011;9652;49.014;12.052;2023-03-20T06:00:18;4.67;;;3.70;;
19038;SDS011;9652;49.014;12.052;2023-03-20T06:02:56;4.20;;;3.80;;
19038;SDS011;9652;49.014;12.052;2023-03-20T06:05:40;4.23;;;3.83;;
19038;SDS011;9652;49.014;12.052;2023-03-20T06:08:08;5.10;;;4.70;;
19038;SDS011;9652;49.014;12.052;2023-03-20T06:10:36;6.57;;;4.13;;
19038;SDS011;9652;49.014;12.052;2023-03-20T06:13:03;5.10;;;4.60;;
19038;SDS011;9652;49.014;12.052;2023-03-20T06:15:31;5.00;;;4.60;;
19038;SDS011;9652;49.014;12.052;2023-03-20T06:18:08;5.47;;;4.30;;
19038;SDS011;9652;49.014;12.052;2023-03-20T06:20:36;4.80;;;4.40;;
19038;SDS011;9652;49.014;12.052;2023-03-20T06:23:03;4.93;;;4.47;;
19038;SDS011;9652;49.014;12.052;2023-03-20T06:25:32;5.20;;;4.10;;
19038;SDS011;9652;49.014;12.052;2023-03-20T06:28:00;5.63;;;4.10;;
19038;SDS011;9652;49.014;12.052;2023-03-20T06:30:28;4.40;;;4.00;;
19038;SDS011;9652;49.014;12.052;2023-03-20T06:32:55;4.77;;;4.37;;
19038;SDS011;9652;49.014;12.052;2023-03-20T06:35:30;4.77;;;4.33;;
19038;SDS011;9652;49.014;12.052;2023-03-20T06:37:58;5.10;;;4.60;;
19038;SDS011;9652;49.014;12.052;2023-03-20T06:40:25;7.90;;;4.13;;
19038;SDS011;9652;49.014;12.052;2023-03-20T06:42:55;4.97;;;4.47;;
19038;SDS011;9652;49.014;12.052;2023-03-20T06:45:28;4.73;;;4.27;;
19038;SDS011;9652;49.014;12.052;2023-03-20T06:47:58;5.40;;;4.30;;
19038;SDS011;9652;49.014;12.052;2023-03-20T06:50:25;5.07;;;4.57;;
19038;SDS011;9652;49.014;12.052;2023-03-20T06:52:53;4.43;;;4.03;;
19038;SDS011;9652;49.014;12.052;2023-03-20T06:55:37;5.80;;;4.17;;
19038;SDS011;9652;49.014;12.052;2023-03-20T06:58:05;5.17;;;3.73;;
19038;SDS011;9652;49.014;12.052;2023-03-20T07:00:34;5.40;;;3.57;;
19038;SDS011;9652;49.014;12.052;2023-03-20T07:03:04;4.13;;;3.83;;
19038;SDS011;9652;49.014;12.052;2023-03-20T07:05:31;5.67;;;3.97;;
19038;SDS011;9652;49.014;12.052;2023-03-20T07:08:00;4.83;;;3.90;;
19038;SDS011;9652;49.014;12.052;2023-03-20T07:10:27;4.40;;;4.00;;
19038;SDS011;9652;49.014;12.052;2023-03-20T07:12:55;6.57;;;4.13;;
19038;SDS011;9652;49.014;12.052;2023-03-20T07:15:23;5.30;;;4.63;;
19038;SDS011;9652;49.014;12.052;2023-03-20T07:17:51;4.87;;;4.47;;
19038;SDS011;9652;49.014;12.052;2023-03-20T07:20:19;4.30;;;3.90;;
19038;SDS011;9652;49.014;12.052;2023-03-20T07:22:48;5.97;;;4.60;;
19038;SDS011;9652;49.014;12.052;2023-03-20T07:25:22;4.80;;;4.07;;
19038;SDS011;9652;49.014;12.052;2023-03-20T07:27:49;4.20;;;3.80;;
19038;SDS011;9652;49.014;12.052;2023-03-20T07:30:19;5.53;;;4.60;;
19038;SDS011;9652;49.014;12.052;2023-03-20T07:32:48;5.03;;;4.53;;
19038;SDS011;9652;49.014;12.052;2023-03-20T07:35:17;5.17;;;4.23;;
19038;SDS011;9652;49.014;12.052;2023-03-20T07:37:44;4.83;;;4.13;;
19038;SDS011;9652;49.014;12.052;2023-03-20T07:40:12;4.83;;;4.20;;
19038;SDS011;9652;49.014;12.052;2023-03-20T07:42:54;4.57;;;4.10;;
19038;SDS011;9652;49.014;12.052;2023-03-20T07:46:00;5.17;;;3.90;;
19038;SDS011;9652;49.014;12.052;2023-03-20T07:48:29;4.80;;;4.00;;
19038;SDS011;9652;49.014;12.052;2023-03-20T07:50:57;4.60;;;3.10;;
19038;SDS011;9652;49.014;12.052;2023-03-20T07:53:24;5.27;;;3.40;;
19038;SDS011;9652;49.014;12.052;2023-03-20T07:55:51;6.70;;;3.50;;
19038;SDS011;9652;49.014;12.052;2023-03-20T07:58:18;3.67;;;3.30;;
19038;SDS011;9652;49.014;12.052;2023-03-20T08:00:45;3.43;;;3.13;;
19038;SDS011;9652;49.014;12.052;2023-03-20T08:03:13;3.40;;;2.93;;
19038;SDS011;9652;49.014;12.052;2023-03-20T08:05:41;3.10;;;2.80;;
19038;SDS011;9652;49.014;12.052;2023-03-20T08:08:09;3.73;;;3.03;;
19038;SDS011;9652;49.014;12.052;2023-03-20T08:10:36;4.00;;;3.33;;
19038;SDS011;9652;49.014;12.052;2023-03-20T08:13:03;4.40;;;3.03;;
19038;SDS011;9652;49.014;12.052;2023-03-20T08:15:30;5.17;;;3.37;;
19038;SDS011;9652;49.014;12.052;2023-03-20T08:17:57;3.40;;;3.10;;
19038;SDS011;9652;49.014;12.052;2023-03-20T08:20:24;3.00;;;2.70;;
19038;SDS011;9652;49.014;12.052;2023-03-20T08:22:52;3.10;;;2.77;;
19038;SDS011;9652;49.014;12.052;2023-03-20T08:25:19;3.40;;;3.10;;
19038;SDS011;9652;49.014;12.052;2023-03-20T08:27:47;4.43;;;3.10;;
19038;SDS011;9652;49.014;12.052;2023-03-20T08:30:15;3.10;;;2.83;;
19038;SDS011;9652;49.014;12.052;2023-03-20T08:32:42;3.20;;;2.83;;
19038;SDS011;9652;49.014;12.052;2023-03-20T08:35:09;4.33;;;2.60;;
19038;SDS011;9652;49.014;12.052;2023-03-20T08:37:36;4.37;;;2.63;;
19038;SDS011;9652;49.014;12.052;2023-03-20T08:40:05;4.43;;;3.03;;
19038;SDS011;9652;49.014;12.052;2023-03-20T08:42:33;3.80;;;2.40;;
19038;SDS011;9652;49.014;12.052;2023-03-20T08:45:00;3.17;;;2.87;;
19038;SDS011;9652;49.014;12.052;2023-03-20T08:47:28;3.00;;;2.70;;
19038;SDS011;9652;49.014;12.052;2023-03-20T08:49:55;2.83;;;2.53;;
19038;SDS011;9652;49.014;12.052;2023-03-20T08:52:22;2.37;;;2.17;;
19038;SDS011;9652;49.014;12.052;2023-03-20T08:54:49;2.53;;;2.33;;
19038;SDS011;9652;49.014;12.052;2023-03-20T08:57:17;3.37;;;2.47;;
19038;SDS011;9652;49.014;12.052;2023-03-20T08:59:44;3.40;;;3.10;;
19038;SDS011;9652;49.014;12.052;2023-03-20T09:02:12;2.33;;;2.13;;
19038;SDS011;9652;49.014;12.052;2023-03-20T09:04:39;3.07;;;2.60;;
19038;SDS011;9652;49.014;12.052;2023-03-20T09:07:06;3.00;;;2.70;;
19038;SDS011;9652;49.014;12.052;2023-03-20T09:09:33;2.93;;;2.33;;
19038;SDS011;9652;49.014;12.052;2023-03-20T09:12:00;2.77;;;2.57;;
19038;SDS011;9652;49.014;12.052;2023-03-20T09:14:29;2.60;;;2.40;;
19038;SDS011;9652;49.014;12.052;2023-03-20T09:16:56;2.23;;;2.03;;
19038;SDS011;9652;49.014;12.052;2023-03-20T09:19:23;2.20;;;2.07;;
19038;SDS011;9652;49.014;12.052;2023-03-20T09:21:50;3.00;;;2.70;;
19038;SDS011;9652;49.014;12.052;2023-03-20T09:24:17;2.53;;;2.33;;
19038;SDS011;9652;49.014;12.052;2023-03-20T09:26:44;2.40;;;2.20;;
19038;SDS011;9652;49.014;12.052;2023-03-20T09:29:11;3.57;;;2.40;;
19038;SDS011;9652;49.014;12.052;2023-03-20T09:31:39;2.37;;;2.17;;
19038;SDS011;9652;49.014;12.052;2023-03-20T09:34:06;2.50;;;2.30;;
19038;SDS011;9652;49.014;12.052;2023-03-20T09:36:34;3.47;;;2.60;;
19038;SDS011;9652;49.014;12.052;2023-03-20T09:39:01;2.70;;;2.50;;
19038;SDS011;9652;49.014;12.052;2023-03-20T09:41:29;2.40;;;2.20;;
19038;SDS011;9652;49.014;12.052;2023-03-20T09:44:06;2.17;;;2.00;;
19038;SDS011;9652;49.014;12.052;2023-03-20T09:46:55;3.00;;;2.30;;
19038;SDS011;9652;49.014;12.052;2023-03-20T09:49:39;2.30;;;2.10;;
19038;SDS011;9652;49.014;12.052;2023-03-20T09:52:25;2.13;;;1.93;;
19038;SDS011;9652;49.014;12.052;2023-03-20T09:54:58;1.83;;;1.73;;
19038;SDS011;9652;49.014;12.052;2023-03-20T09:57:33;2.47;;;2.27;;
19038;SDS011;9652;49.014;12.052;2023-03-20T10:00:07;2.33;;;2.13;;
19038;SDS011;9652;49.014;12.052;2023-03-20T10:02:45;2.83;;;2.23;;
19038;SDS011;9652;49.014;12.052;2023-03-20T10:05:18;2.13;;;1.97;;
19038;SDS011;9652;49.014;12.052;2023-03-20T10:07:50;2.07;;;1.87;;
19038;SDS011;9652;49.014;12.052;2023-03-20T10:10:21;2.10;;;1.90;;
19038;SDS011;9652;49.014;12.052;2023-03-20T10:13:06;1.80;;;1.70;;
19038;SDS011;9652;49.014;12.052;2023-03-20T10:15:53;1.90;;;1.77;;
19038;SDS011;9652;49.014;12.052;2023-03-20T10:18:28;1.80;;;1.70;;
19038;SDS011;9652;49.014;12.052;2023-03-20T10:21:03;1.97;;;1.87;;
19038;SDS011;9652;49.014;12.052;2023-03-20T10:23:41;2.07;;;1.80;;
19038;SDS011;9652;49.014;12.052;2023-03-20T10:26:19;2.07;;;1.87;;
19038;SDS011;9652;49.014;12.052;2023-03-20T10:28:50;2.20;;;2.00;;
19038;SDS011;9652;49.014;12.052;2023-03-20T10:31:27;4.23;;;1.80;;
19038;SDS011;9652;49.014;12.052;2023-03-20T10:34:15;2.33;;;1.80;;
19038;SDS011;9652;49.014;12.052;2023-03-20T10:37:02;1.70;;;1.60;;
19038;SDS011;9652;49.014;12.052;2023-03-20T10:39:48;1.67;;;1.50;;
19038;SDS011;9652;49.014;12.052;2023-03-20T10:42:30;3.03;;;1.80;;
19038;SDS011;9652;49.014;12.052;2023-03-20T10:45:06;1.70;;;1.60;;
19038;SDS011;9652;49.014;12.052;2023-03-20T10:47:47;1.87;;;1.50;;
19038;SDS011;9652;49.014;12.052;2023-03-20T10:50:20;1.37;;;1.27;;
19038;SDS011;9652;49.014;12.052;2023-03-20T10:52:54;1.50;;;1.40;;
19038;SDS011;9652;49.014;12.052;2023-03-20T10:55:23;1.47;;;1.37;;
19038;SDS011;9652;49.014;12.052;2023-03-20T10:57:56;1.90;;;1.73;;
19038;SDS011;9652;49.014;12.052;2023-03-20T11:00:31;1.67;;;1.47;;
19038;SDS011;9652;49.014;12.052;2023-03-20T11:02:58;2.07;;;1.70;;
19038;SDS011;9652;49.014;12.052;2023-03-20T11:05:28;1.40;;;1.30;;
19038;SDS011;9652;49.014;12.052;2023-03-20T11:07:59;2.70;;;1.47;;
19038;SDS011;9652;49.014;12.052;2023-03-20T11:10:31;1.60;;;1.50;;
19038;SDS011;9652;49.014;12.052;2023-03-20T11:13:03;1.60;;;1.50;;
19038;SDS011;9652;49.014;12.052;2023-03-20T11:15:43;1.23;;;1.17;;
19038;SDS011;9652;49.014;12.052;2023-03-20T11:18:11;1.33;;;1.23;;
19038;SDS011;9652;49.014;12.052;2023-03-20T11:20:44;1.40;;;1.30;;
19038;SDS011;9652;49.014;12.052;2023-03-20T11:23:16;1.30;;;1.20;;
19038;SDS011;9652;49.014;12.052;2023-03-20T11:25:49;2.47;;;1.50;;
19038;SDS011;9652;49.014;12.052;2023-03-20T11:28:25;1.20;;;1.07;;
19038;SDS011;9652;49.014;12.052;2023-03-20T11:30:59;1.30;;;1.20;;
19038;SDS011;9652;49.014;12.052;2023-03-20T11:33:33;1.50;;;1.40;;
19038;SDS011;9652;49.014;12.052;2023-03-20T11:36:10;1.83;;;1.20;;
19038;SDS011;9652;49.014;12.052;2023-03-20T11:38:47;1.40;;;0.97;;
19038;SDS011;9652;49.014;12.052;2023-03-20T11:41:18;1.07;;;1.00;;
19038;SDS011;9652;49.014;12.052;2023-03-20T11:43:50;2.00;;;0.83;;
19038;SDS011;9652;49.014;12.052;2023-03-20T11:46:17;1.00;;;1.00;;
19038;SDS011;9652;49.014;12.052;2023-03-20T11:49:00;1.10;;;1.03;;
19038;SDS011;9652;49.014;12.052;2023-03-20T11:51:33;1.10;;;1.03;;
19038;SDS011;9652;49.014;12.052;2023-03-20T11:54:04;1.37;;;1.10;;
19038;SDS011;9652;49.014;12.052;2023-03-20T11:56:39;2.13;;;1.30;;
19038;SDS011;9652;49.014;12.052;2023-03-20T11:59:19;0.90;;;0.90;;
19038;SDS011;9652;49.014;12.052;2023-03-20T12:01:50;1.60;;;1.13;;
19038;SDS011;9652;49.014;12.052;2023-03-20T12:04:24;3.90;;;2.50;;
19038;SDS011;9652;49.014;12.052;2023-03-20T12:06:57;2.20;;;1.60;;
19038;SDS011;9652;49.014;12.052;2023-03-20T12:09:32;2.27;;;1.93;;
19038;SDS011;9652;49.014;12.052;2023-03-20T12:12:08;1.30;;;1.13;;
19038;SDS011;9652;49.014;12.052;2023-03-20T12:14:46;1.63;;;1.10;;
19038;SDS011;9652;49.014;12.052;2023-03-20T12:17:26;1.30;;;1.10;;
19038;SDS011;9652;49.014;12.052;2023-03-20T12:20:19;1.50;;;1.10;;
19038;SDS011;9652;49.014;12.052;2023-03-20T12:22:58;1.03;;;1.03;;
19038;SDS011;9652;49.014;12.052;2023-03-20T12:25:35;4.30;;;1.53;;
19038;SDS011;9652;49.014;12.052;2023-03-20T12:28:13;2.17;;;1.50;;
19038;SDS011;9652;49.014;12.052;2023-03-20T12:30:52;1.13;;;1.13;;
19038;SDS011;9652;49.014;12.052;2023-03-20T12:33:36;1.53;;;1.43;;
19038;SDS011;9652;49.014;12.052;2023-03-20T12:36:14;1.27;;;1.27;;
19038;SDS011;9652;49.014;12.052;2023-03-20T12:38:47;1.40;;;1.33;;
19038;SDS011;9652;49.014;12.052;2023-03-20T12:41:14;2.40;;;1.60;;
19038;SDS011;9652;49.014;12.052;2023-03-20T12:43:58;1.63;;;1.50;;
19038;SDS011;9652;49.014;12.052;2023-03-20T12:46:50;1.40;;;1.30;;
19038;SDS011;9652;49.014;12.052;2023-03-20T12:49:33;2.60;;;1.50;;
19038;SDS011;9652;49.014;12.052;2023-03-20T12:52:14;4.00;;;1.30;;
19038;SDS011;9652;49.014;12.052;2023-03-20T12:55:10;3.03;;;1.50;;
19038;SDS011;9652;49.014;12.052;2023-03-20T12:57:57;1.60;;;1.13;;
19038;SDS011;9652;49.014;12.052;2023-03-20T13:00:42;1.00;;;1.00;;
19038;SDS011;9652;49.014;12.052;2023-03-20T13:06:25;1.83;;;1.10;;
19038;SDS011;9652;49.014;12.052;2023-03-20T13:12:32;0.93;;;0.93;;
19038;SDS011;9652;49.014;12.052;2023-03-20T13:15:13;1.20;;;1.20;;
19038;SDS011;9652;49.014;12.052;2023-03-20T13:17:58;1.10;;;1.00;;
19038;SDS011;9652;49.014;12.052;2023-03-20T13:20:35;1.43;;;1.30;;
19038;SDS011;9652;49.014;12.052;2023-03-20T13:23:16;1.90;;;1.37;;
19038;SDS011;9652;49.014;12.052;2023-03-20T13:26:02;2.27;;;1.10;;
19038;SDS011;9652;49.014;12.052;2023-03-20T13:28:46;1.00;;;1.00;;
19038;SDS011;9652;49.014;12.052;2023-03-20T13:31:26;1.40;;;1.30;;
19038;SDS011;9652;49.014;12.052;2023-03-20T13:34:06;1.87;;;1.30;;
19038;SDS011;9652;49.014;12.052;2023-03-20T13:36:54;1.53;;;1.40;;
19038;SDS011;9652;49.014;12.052;2023-03-20T13:39:43;1.50;;;1.40;;
19038;SDS011;9652;49.014;12.052;2023-03-20T13:42:16;1.37;;;1.37;;
19038;SDS011;9652;49.014;12.052;2023-03-20T13:44:48;1.40;;;1.30;;
19038;SDS011;9652;49.014;12.052;2023-03-20T13:47:22;1.70;;;1.20;;
19038;SDS011;9652;49.014;12.052;2023-03-20T13:49:55;1.50;;;1.40;;
19038;SDS011;9652;49.014;12.052;2023-03-20T13:52:48;1.60;;;1.50;;
19038;SDS011;9652;49.014;12.052;2023-03-20T13:55:28;1.50;;;1.40;;
19038;SDS011;9652;49.014;12.052;2023-03-20T13:58:16;1.43;;;1.33;;
19038;SDS011;9652;49.014;12.052;2023-03-20T14:01:19;1.30;;;1.20;;
19038;SDS011;9652;49.014;12.052;2023-03-20T14:03:57;1.40;;;1.30;;
19038;SDS011;9652;49.014;12.052;2023-03-20T14:06:44;1.50;;;1.40;;
19038;SDS011;9652;49.014;12.052;2023-03-20T14:09:27;1.60;;;1.40;;
19038;SDS011;9652;49.014;12.052;2023-03-20T14:12:01;1.40;;;1.30;;
19038;SDS011;9652;49.014;12.052;2023-03-20T14:14:32;1.60;;;1.50;;
19038;SDS011;9652;49.014;12.052;2023-03-20T14:17:11;2.83;;;1.60;;
19038;SDS011;9652;49.014;12.052;2023-03-20T14:19:44;1.47;;;1.37;;
19038;SDS011;9652;49.014;12.052;2023-03-20T14:22:13;1.33;;;1.23;;
19038;SDS011;9652;49.014;12.052;2023-03-20T14:24:48;1.57;;;1.47;;
19038;SDS011;9652;49.014;12.052;2023-03-20T14:27:24;1.63;;;1.53;;
19038;SDS011;9652;49.014;12.052;2023-03-20T14:29:54;1.70;;;1.60;;
19038;SDS011;9652;49.014;12.052;2023-03-20T14:32:33;1.77;;;1.63;;
19038;SDS011;9652;49.014;12.052;2023-03-20T14:35:20;1.67;;;1.57;;
19038;SDS011;9652;49.014;12.052;2023-03-20T14:38:08;1.60;;;1.40;;
19038;SDS011;9652;49.014;12.052;2023-03-20T14:40:48;1.60;;;1.50;;
19038;SDS011;9652;49.014;12.052;2023-03-20T14:43:37;1.60;;;1.50;;
19038;SDS011;9652;49.014;12.052;2023-03-20T14:46:24;1.60;;;1.50;;
19038;SDS011;9652;49.014;12.052;2023-03-20T14:49:13;1.30;;;1.20;;
19038;SDS011;9652;49.014;12.052;2023-03-20T14:52:08;1.63;;;1.53;;
19038;SDS011;9652;49.014;12.052;2023-03-20T14:54:57;1.50;;;1.40;;
19038;SDS011;9652;49.014;12.052;2023-03-20T14:57:56;1.30;;;1.20;;
19038;SDS011;9652;49.014;12.052;2023-03-20T15:00:24;1.70;;;1.43;;
19038;SDS011;9652;49.014;12.052;2023-03-20T15:02:57;2.10;;;1.67;;
19038;SDS011;9652;49.014;12.052;2023-03-20T15:05:34;1.40;;;1.30;;
19038;SDS011;9652;49.014;12.052;2023-03-20T15:08:07;1.30;;;1.20;;
19038;SDS011;9652;49.014;12.052;2023-03-20T15:10:43;1.40;;;1.30;;
19038;SDS011;9652;49.014;12.052;2023-03-20T15:13:14;1.30;;;1.20;;
19038;SDS011;9652;49.014;12.052;2023-03-20T15:15:50;1.63;;;1.53;;
19038;SDS011;9652;49.014;12.052;2023-03-20T15:18:21;1.30;;;1.30;;
19038;SDS011;9652;49.014;12.052;2023-03-20T15:20:50;2.23;;;1.80;;
19038;SDS011;9652;49.014;12.052;2023-03-20T15:23:18;1.60;;;1.50;;
19038;SDS011;9652;49.014;12.052;2023-03-20T15:25:46;1.50;;;1.40;;
19038;SDS011;9652;49.014;12.052;2023-03-20T15:28:15;2.70;;;1.43;;
19038;SDS011;9652;49.014;12.052;2023-03-20T15:30:48;1.60;;;1.50;;
19038;SDS011;9652;49.014;12.052;2023-03-20T15:33:21;1.40;;;1.30;;
19038;SDS011;9652;49.014;12.052;2023-03-20T15:35:52;1.37;;;1.20;;
19038;SDS011;9652;49.014;12.052;2023-03-20T15:38:21;1.27;;;1.17;;
19038;SDS011;9652;49.014;12.052;2023-03-20T15:40:55;1.60;;;1.50;;
19038;SDS011;9652;49.014;12.052;2023-03-20T15:43:23;1.60;;;1.50;;
19038;SDS011;9652;49.014;12.052;2023-03-20T15:45:52;1.10;;;1.00;;
19038;SDS011;9652;49.014;12.052;2023-03-20T15:48:23;1.63;;;1.30;;
19038;SDS011;9652;49.014;12.052;2023-03-20T15:50:51;1.53;;;1.43;;